sensor_id;sensor_type;location;lat;lon;timestamp;pressure;altitude;pressure_sealevel;temperature;humidity
75359;BME280;64046;51.978;5.934;2022-12-07T00:00:09;101650.41;;;10.12;97.74
75359;BME280;64046;51.978;5.934;2022-12-07T00:02:38;101655.94;;;10.01;97.79
75359;BME280;64046;51.978;5.934;2022-12-07T00:05:08;101647.28;;;9.99;97.66
75359;BME280;64046;51.978;5.934;2022-12-07T00:07:37;101656.13;;;9.95;98.14
75359;BME280;64046;51.978;5.934;2022-12-07T00:10:09;101647.81;;;10.11;97.74
75359;BME280;64046;51.978;5.934;2022-12-07T00:12:38;101654.53;;;9.90;97.98
75359;BME280;64046;51.978;5.934;2022-12-07T00:15:08;101656.13;;;9.95;98.09
75359;BME280;64046;51.978;5.934;2022-12-07T00:17:38;101645.00;;;9.87;98.21
75359;BME280;64046;51.978;5.934;2022-12-07T00:20:08;101654.38;;;9.96;97.95
75359;BME280;64046;51.978;5.934;2022-12-07T00:22:37;101651.88;;;9.91;97.82
75359;BME280;64046;51.978;5.934;2022-12-07T00:25:09;101649.75;;;10.04;97.50
75359;BME280;64046;51.978;5.934;2022-12-07T00:27:38;101644.19;;;9.85;97.89
75359;BME280;64046;51.978;5.934;2022-12-07T00:30:08;101648.22;;;9.97;97.39
75359;BME280;64046;51.978;5.934;2022-12-07T00:32:38;101655.47;;;9.87;97.66
75359;BME280;64046;51.978;5.934;2022-12-07T00:35:07;101636.94;;;9.95;97.49
75359;BME280;64046;51.978;5.934;2022-12-07T00:37:37;101641.63;;;9.83;97.39
75359;BME280;64046;51.978;5.934;2022-12-07T00:40:10;101640.28;;;10.00;96.81
75359;BME280;64046;51.978;5.934;2022-12-07T00:42:39;101640.03;;;9.78;97.39
75359;BME280;64046;51.978;5.934;2022-12-07T00:45:09;101635.53;;;9.83;97.06
75359;BME280;64046;51.978;5.934;2022-12-07T00:47:38;101639.19;;;9.77;97.17
75359;BME280;64046;51.978;5.934;2022-12-07T00:50:08;101634.53;;;9.87;97.36
75359;BME280;64046;51.978;5.934;2022-12-07T00:52:37;101629.19;;;9.92;96.69
75359;BME280;64046;51.978;5.934;2022-12-07T00:55:09;101624.13;;;10.15;95.85
75359;BME280;64046;51.978;5.934;2022-12-07T00:57:38;101621.00;;;10.02;95.78
75359;BME280;64046;51.978;5.934;2022-12-07T01:00:08;101624.41;;;10.06;96.00
75359;BME280;64046;51.978;5.934;2022-12-07T01:02:38;101623.75;;;9.98;96.08
75359;BME280;64046;51.978;5.934;2022-12-07T01:05:08;101624.31;;;10.09;95.54
75359;BME280;64046;51.978;5.934;2022-12-07T01:07:37;101626.38;;;9.98;95.66
75359;BME280;64046;51.978;5.934;2022-12-07T01:10:10;101620.56;;;10.18;95.01
75359;BME280;64046;51.978;5.934;2022-12-07T01:12:40;101626.88;;;10.11;95.11
75359;BME280;64046;51.978;5.934;2022-12-07T01:15:09;101616.31;;;10.14;94.81
75359;BME280;64046;51.978;5.934;2022-12-07T01:17:39;101627.03;;;10.06;94.58
75359;BME280;64046;51.978;5.934;2022-12-07T01:20:09;101620.91;;;10.05;94.74
75359;BME280;64046;51.978;5.934;2022-12-07T01:22:38;101625.34;;;10.03;94.65
75359;BME280;64046;51.978;5.934;2022-12-07T01:25:11;101631.84;;;10.20;93.96
75359;BME280;64046;51.978;5.934;2022-12-07T01:27:40;101636.81;;;9.99;93.87
75359;BME280;64046;51.978;5.934;2022-12-07T01:30:11;101638.28;;;10.08;93.63
75359;BME280;64046;51.978;5.934;2022-12-07T01:32:41;101642.00;;;10.01;93.38
75359;BME280;64046;51.978;5.934;2022-12-07T01:35:10;101641.19;;;9.99;93.26
75359;BME280;64046;51.978;5.934;2022-12-07T01:37:39;101638.56;;;9.99;93.22
75359;BME280;64046;51.978;5.934;2022-12-07T01:40:12;101636.31;;;10.16;92.59
75359;BME280;64046;51.978;5.934;2022-12-07T01:42:41;101633.28;;;10.00;92.70
75359;BME280;64046;51.978;5.934;2022-12-07T01:48:15;101634.34;;;10.25;91.39
75359;BME280;64046;51.978;5.934;2022-12-07T01:50:48;101629.22;;;10.20;91.44
75359;BME280;64046;51.978;5.934;2022-12-07T01:53:18;101625.28;;;10.05;91.58
75359;BME280;64046;51.978;5.934;2022-12-07T01:55:52;101631.09;;;10.16;91.16
75359;BME280;64046;51.978;5.934;2022-12-07T01:58:22;101624.50;;;10.01;91.51
75359;BME280;64046;51.978;5.934;2022-12-07T02:00:52;101624.69;;;9.95;91.33
75359;BME280;64046;51.978;5.934;2022-12-07T02:03:25;101618.25;;;10.07;91.07
75359;BME280;64046;51.978;5.934;2022-12-07T02:05:57;101624.66;;;9.97;91.44
75359;BME280;64046;51.978;5.934;2022-12-07T02:08:27;101626.81;;;9.82;91.35
75359;BME280;64046;51.978;5.934;2022-12-07T02:10:59;101621.09;;;9.99;91.00
75359;BME280;64046;51.978;5.934;2022-12-07T02:13:31;101617.72;;;9.96;90.90
75359;BME280;64046;51.978;5.934;2022-12-07T02:16:17;101615.59;;;10.09;89.67
75359;BME280;64046;51.978;5.934;2022-12-07T02:18:58;101614.88;;;10.03;89.78
75359;BME280;64046;51.978;5.934;2022-12-07T02:21:38;101617.69;;;9.97;89.84
75359;BME280;64046;51.978;5.934;2022-12-07T02:24:30;101614.19;;;9.97;89.79
75359;BME280;64046;51.978;5.934;2022-12-07T02:30:10;101617.03;;;9.89;89.75
75359;BME280;64046;51.978;5.934;2022-12-07T02:32:46;101622.47;;;9.81;90.11
75359;BME280;64046;51.978;5.934;2022-12-07T02:35:21;101628.75;;;9.76;90.22
75359;BME280;64046;51.978;5.934;2022-12-07T02:37:58;101628.75;;;9.76;90.35
75359;BME280;64046;51.978;5.934;2022-12-07T02:40:34;101627.34;;;9.62;90.93
75359;BME280;64046;51.978;5.934;2022-12-07T02:43:09;101625.69;;;9.60;90.93
75359;BME280;64046;51.978;5.934;2022-12-07T02:45:44;101621.47;;;9.56;91.09
75359;BME280;64046;51.978;5.934;2022-12-07T02:48:16;101626.69;;;9.56;91.02
75359;BME280;64046;51.978;5.934;2022-12-07T02:50:48;101623.16;;;9.57;90.81
75359;BME280;64046;51.978;5.934;2022-12-07T02:53:35;101613.25;;;9.68;89.37
75359;BME280;64046;51.978;5.934;2022-12-07T02:56:09;101618.94;;;9.51;90.66
75359;BME280;64046;51.978;5.934;2022-12-07T02:58:50;101616.38;;;9.49;90.50
75359;BME280;64046;51.978;5.934;2022-12-07T03:01:32;101622.63;;;9.44;90.73
75359;BME280;64046;51.978;5.934;2022-12-07T03:04:14;101622.56;;;9.45;90.84
75359;BME280;64046;51.978;5.934;2022-12-07T03:06:53;101616.66;;;9.39;91.11
75359;BME280;64046;51.978;5.934;2022-12-07T03:09:28;101626.16;;;9.41;91.15
75359;BME280;64046;51.978;5.934;2022-12-07T03:12:06;101621.84;;;9.40;90.92
75359;BME280;64046;51.978;5.934;2022-12-07T03:14:41;101625.53;;;9.33;91.53
75359;BME280;64046;51.978;5.934;2022-12-07T03:17:17;101628.97;;;9.35;91.49
75359;BME280;64046;51.978;5.934;2022-12-07T03:19:49;101629.97;;;9.29;91.72
75359;BME280;64046;51.978;5.934;2022-12-07T03:22:21;101630.94;;;9.25;91.86
75359;BME280;64046;51.978;5.934;2022-12-07T03:24:55;101630.13;;;9.23;92.04
75359;BME280;64046;51.978;5.934;2022-12-07T03:27:30;101618.94;;;9.18;92.52
75359;BME280;64046;51.978;5.934;2022-12-07T03:30:03;101617.28;;;9.14;92.76
75359;BME280;64046;51.978;5.934;2022-12-07T03:32:38;101612.00;;;9.15;92.69
75359;BME280;64046;51.978;5.934;2022-12-07T03:35:14;101616.47;;;9.12;92.82
75359;BME280;64046;51.978;5.934;2022-12-07T03:37:48;101604.25;;;9.12;93.08
75359;BME280;64046;51.978;5.934;2022-12-07T03:40:22;101605.97;;;9.13;93.09
75359;BME280;64046;51.978;5.934;2022-12-07T03:42:55;101602.56;;;9.11;93.20
75359;BME280;64046;51.978;5.934;2022-12-07T03:45:31;101600.47;;;9.24;92.98
75359;BME280;64046;51.978;5.934;2022-12-07T03:48:08;101598.63;;;9.28;92.77
75359;BME280;64046;51.978;5.934;2022-12-07T03:50:45;101598.66;;;9.26;93.18
75359;BME280;64046;51.978;5.934;2022-12-07T03:53:20;101596.19;;;9.22;93.47
75359;BME280;64046;51.978;5.934;2022-12-07T03:55:52;101598.84;;;9.20;93.53
75359;BME280;64046;51.978;5.934;2022-12-07T03:58:22;101596.16;;;9.23;93.50
75359;BME280;64046;51.978;5.934;2022-12-07T04:00:53;101602.25;;;9.22;93.47
75359;BME280;64046;51.978;5.934;2022-12-07T04:03:25;101602.75;;;9.37;93.34
75359;BME280;64046;51.978;5.934;2022-12-07T04:05:54;101597.91;;;9.21;93.55
75359;BME280;64046;51.978;5.934;2022-12-07T04:08:24;101597.88;;;9.24;93.51
75359;BME280;64046;51.978;5.934;2022-12-07T04:10:54;101597.81;;;9.26;93.50
75359;BME280;64046;51.978;5.934;2022-12-07T04:13:23;101597.81;;;9.26;93.47
75359;BME280;64046;51.978;5.934;2022-12-07T04:15:52;101601.22;;;9.29;93.33
75359;BME280;64046;51.978;5.934;2022-12-07T04:18:21;101594.19;;;9.31;93.28
75359;BME280;64046;51.978;5.934;2022-12-07T04:20:53;101592.78;;;9.51;92.78
75359;BME280;64046;51.978;5.934;2022-12-07T04:23:22;101592.94;;;9.45;92.60
75359;BME280;64046;51.978;5.934;2022-12-07T04:25:51;101591.09;;;9.48;92.43
75359;BME280;64046;51.978;5.934;2022-12-07T04:28:20;101593.63;;;9.53;92.15
75359;BME280;64046;51.978;5.934;2022-12-07T04:30:50;101593.47;;;9.58;92.30
75359;BME280;64046;51.978;5.934;2022-12-07T04:33:19;101597.69;;;9.63;91.80
75359;BME280;64046;51.978;5.934;2022-12-07T04:35:48;101590.59;;;9.67;91.58
75359;BME280;64046;51.978;5.934;2022-12-07T04:38:20;101593.72;;;9.80;91.43
75359;BME280;64046;51.978;5.934;2022-12-07T04:40:49;101604.75;;;9.60;91.81
75359;BME280;64046;51.978;5.934;2022-12-07T04:43:18;101598.09;;;9.48;92.53
75359;BME280;64046;51.978;5.934;2022-12-07T04:45:48;101604.06;;;9.53;92.49
75359;BME280;64046;51.978;5.934;2022-12-07T04:48:17;101607.63;;;9.50;92.08
75359;BME280;64046;51.978;5.934;2022-12-07T04:50:47;101596.91;;;9.60;92.02
75359;BME280;64046;51.978;5.934;2022-12-07T04:53:20;101594.47;;;9.53;92.03
75359;BME280;64046;51.978;5.934;2022-12-07T04:55:49;101590.94;;;9.55;91.76
75359;BME280;64046;51.978;5.934;2022-12-07T04:58:18;101593.47;;;9.58;91.71
75359;BME280;64046;51.978;5.934;2022-12-07T05:00:47;101586.53;;;9.57;91.67
75359;BME280;64046;51.978;5.934;2022-12-07T05:03:16;101597.03;;;9.55;91.76
75359;BME280;64046;51.978;5.934;2022-12-07T05:05:45;101585.84;;;9.50;91.67
75359;BME280;64046;51.978;5.934;2022-12-07T05:08:15;101584.31;;;9.43;91.91
75359;BME280;64046;51.978;5.934;2022-12-07T05:10:48;101574.31;;;9.57;91.59
75359;BME280;64046;51.978;5.934;2022-12-07T05:13:17;101575.66;;;9.39;91.95
75359;BME280;64046;51.978;5.934;2022-12-07T05:15:46;101577.38;;;9.40;91.63
75359;BME280;64046;51.978;5.934;2022-12-07T05:18:15;101574.72;;;9.42;91.46
75359;BME280;64046;51.978;5.934;2022-12-07T05:20:45;101580.81;;;9.42;91.22
75359;BME280;64046;51.978;5.934;2022-12-07T05:23:14;101581.84;;;9.37;91.02
75359;BME280;64046;51.978;5.934;2022-12-07T05:25:46;101583.19;;;9.51;90.88
75359;BME280;64046;51.978;5.934;2022-12-07T05:28:15;101586.25;;;9.34;90.97
75359;BME280;64046;51.978;5.934;2022-12-07T05:30:45;101578.41;;;9.34;91.05
75359;BME280;64046;51.978;5.934;2022-12-07T05:33:14;101584.72;;;9.27;91.24
75359;BME280;64046;51.978;5.934;2022-12-07T05:35:44;101586.41;;;9.28;90.96
75359;BME280;64046;51.978;5.934;2022-12-07T05:38:13;101581.97;;;9.32;90.81
75359;BME280;64046;51.978;5.934;2022-12-07T05:40:42;101589.81;;;9.32;90.44
75359;BME280;64046;51.978;5.934;2022-12-07T05:43:14;101588.63;;;9.44;90.35
75359;BME280;64046;51.978;5.934;2022-12-07T05:45:43;101591.81;;;9.22;90.68
75359;BME280;64046;51.978;5.934;2022-12-07T05:48:12;101585.78;;;9.20;90.93
75359;BME280;64046;51.978;5.934;2022-12-07T05:50:41;101577.88;;;9.22;91.04
75359;BME280;64046;51.978;5.934;2022-12-07T05:53:11;101577.88;;;9.22;90.87
75359;BME280;64046;51.978;5.934;2022-12-07T05:55:40;101576.25;;;9.17;91.03
75359;BME280;64046;51.978;5.934;2022-12-07T05:58:09;101585.06;;;9.13;91.03
75359;BME280;64046;51.978;5.934;2022-12-07T06:00:54;101585.44;;;9.32;90.82
75359;BME280;64046;51.978;5.934;2022-12-07T06:03:23;101583.28;;;9.14;90.94
75359;BME280;64046;51.978;5.934;2022-12-07T06:05:52;101588.56;;;9.12;91.00
75359;BME280;64046;51.978;5.934;2022-12-07T06:08:22;101572.97;;;9.09;91.08
75359;BME280;64046;51.978;5.934;2022-12-07T06:10:51;101588.66;;;9.09;90.80
75359;BME280;64046;51.978;5.934;2022-12-07T06:13:40;101576.47;;;9.08;90.83
75359;BME280;64046;51.978;5.934;2022-12-07T06:16:09;101576.88;;;9.27;90.62
75359;BME280;64046;51.978;5.934;2022-12-07T06:18:39;101572.00;;;9.13;90.47
75359;BME280;64046;51.978;5.934;2022-12-07T06:21:08;101581.69;;;9.10;90.40
75359;BME280;64046;51.978;5.934;2022-12-07T06:23:37;101577.38;;;9.07;90.59
75359;BME280;64046;51.978;5.934;2022-12-07T06:26:06;101579.09;;;9.08;90.51
75359;BME280;64046;51.978;5.934;2022-12-07T06:28:35;101570.38;;;9.08;90.58
75359;BME280;64046;51.978;5.934;2022-12-07T06:31:05;101581.75;;;9.07;90.52
75359;BME280;64046;51.978;5.934;2022-12-07T06:33:36;101580.50;;;9.22;90.15
75359;BME280;64046;51.978;5.934;2022-12-07T06:36:07;101578.19;;;9.09;90.68
75359;BME280;64046;51.978;5.934;2022-12-07T06:38:36;101585.50;;;8.96;90.86
75359;BME280;64046;51.978;5.934;2022-12-07T06:41:05;101583.81;;;8.94;90.84
75359;BME280;64046;51.978;5.934;2022-12-07T06:43:35;101575.91;;;8.95;90.84
75359;BME280;64046;51.978;5.934;2022-12-07T06:46:04;101585.56;;;8.93;90.44
75359;BME280;64046;51.978;5.934;2022-12-07T06:48:36;101587.00;;;9.05;90.13
75359;BME280;64046;51.978;5.934;2022-12-07T06:51:05;101586.69;;;8.83;90.71
75359;BME280;64046;51.978;5.934;2022-12-07T06:53:35;101594.38;;;8.89;90.75
75359;BME280;64046;51.978;5.934;2022-12-07T06:56:05;101592.72;;;8.85;90.72
75359;BME280;64046;51.978;5.934;2022-12-07T06:58:34;101585.88;;;8.81;90.72
75359;BME280;64046;51.978;5.934;2022-12-07T07:01:08;101588.94;;;8.98;90.30
75359;BME280;64046;51.978;5.934;2022-12-07T07:03:40;101588.09;;;8.96;90.39
75359;BME280;64046;51.978;5.934;2022-12-07T07:06:10;101591.00;;;8.86;90.54
75359;BME280;64046;51.978;5.934;2022-12-07T07:08:39;101581.44;;;8.85;90.29
75359;BME280;64046;51.978;5.934;2022-12-07T07:11:09;101578.66;;;8.91;90.41
75359;BME280;64046;51.978;5.934;2022-12-07T07:13:38;101588.50;;;8.79;90.47
75359;BME280;64046;51.978;5.934;2022-12-07T07:16:08;101587.59;;;8.82;90.44
75359;BME280;64046;51.978;5.934;2022-12-07T07:18:40;101589.00;;;8.95;90.07
75359;BME280;64046;51.978;5.934;2022-12-07T07:21:09;101596.34;;;8.79;90.28
75359;BME280;64046;51.978;5.934;2022-12-07T07:23:38;101589.44;;;8.78;90.15
75359;BME280;64046;51.978;5.934;2022-12-07T07:26:07;101586.75;;;8.81;89.96
75359;BME280;64046;51.978;5.934;2022-12-07T07:28:37;101595.31;;;8.87;89.89
75359;BME280;64046;51.978;5.934;2022-12-07T07:31:06;101587.59;;;8.82;89.68
75359;BME280;64046;51.978;5.934;2022-12-07T07:33:36;101591.94;;;8.83;89.79
75359;BME280;64046;51.978;5.934;2022-12-07T07:36:08;101595.84;;;8.99;89.36
75359;BME280;64046;51.978;5.934;2022-12-07T07:38:38;101596.19;;;8.87;89.46
75359;BME280;64046;51.978;5.934;2022-12-07T07:41:07;101602.34;;;8.85;89.31
75359;BME280;64046;51.978;5.934;2022-12-07T07:43:36;101592.72;;;8.85;89.63
75359;BME280;64046;51.978;5.934;2022-12-07T07:46:05;101599.69;;;8.86;89.23
75359;BME280;64046;51.978;5.934;2022-12-07T07:48:35;101596.22;;;8.86;89.16
75359;BME280;64046;51.978;5.934;2022-12-07T07:51:08;101598.31;;;9.07;88.49
75359;BME280;64046;51.978;5.934;2022-12-07T07:53:37;101592.84;;;8.80;89.11
75359;BME280;64046;51.978;5.934;2022-12-07T07:56:06;101602.41;;;8.81;89.02
75359;BME280;64046;51.978;5.934;2022-12-07T07:58:35;101594.66;;;8.78;89.47
75359;BME280;64046;51.978;5.934;2022-12-07T08:01:08;101594.09;;;9.02;88.80
75359;BME280;64046;51.978;5.934;2022-12-07T08:03:39;101595.44;;;8.82;89.03
75359;BME280;64046;51.978;5.934;2022-12-07T08:06:11;101595.94;;;8.96;88.83
75359;BME280;64046;51.978;5.934;2022-12-07T08:08:40;101605.03;;;8.81;89.14
75359;BME280;64046;51.978;5.934;2022-12-07T08:11:09;101607.56;;;8.85;89.11
75359;BME280;64046;51.978;5.934;2022-12-07T08:13:39;101608.31;;;8.90;88.69
75359;BME280;64046;51.978;5.934;2022-12-07T08:16:09;101611.34;;;9.09;88.48
75359;BME280;64046;51.978;5.934;2022-12-07T08:18:40;101602.59;;;9.10;88.41
75359;BME280;64046;51.978;5.934;2022-12-07T08:21:13;101602.22;;;9.24;88.37
75359;BME280;64046;51.978;5.934;2022-12-07T08:23:43;101617.28;;;9.14;88.64
75359;BME280;64046;51.978;5.934;2022-12-07T08:26:14;101614.09;;;9.35;88.16
75359;BME280;64046;51.978;5.934;2022-12-07T08:28:43;101622.97;;;9.31;87.95
75359;BME280;64046;51.978;5.934;2022-12-07T08:31:15;101626.47;;;9.30;88.46
75359;BME280;64046;51.978;5.934;2022-12-07T08:33:46;101629.31;;;9.21;89.12
75359;BME280;64046;51.978;5.934;2022-12-07T08:36:18;101628.28;;;9.27;89.32
75359;BME280;64046;51.978;5.934;2022-12-07T08:38:47;101628.66;;;9.13;89.60
75359;BME280;64046;51.978;5.934;2022-12-07T08:41:17;101622.72;;;9.06;90.24
75359;BME280;64046;51.978;5.934;2022-12-07T08:43:46;101624.50;;;9.06;90.43
75359;BME280;64046;51.978;5.934;2022-12-07T08:46:19;101604.84;;;9.24;90.58
75359;BME280;64046;51.978;5.934;2022-12-07T08:48:50;101608.16;;;9.30;90.47
75359;BME280;64046;51.978;5.934;2022-12-07T08:51:23;101612.31;;;9.38;90.41
75359;BME280;64046;51.978;5.934;2022-12-07T08:53:53;101609.94;;;9.30;90.69
75359;BME280;64046;51.978;5.934;2022-12-07T08:56:24;101611.72;;;9.28;90.77
75359;BME280;64046;51.978;5.934;2022-12-07T08:58:54;101603.09;;;9.24;90.96
75359;BME280;64046;51.978;5.934;2022-12-07T09:01:23;101612.63;;;9.25;90.78
75359;BME280;64046;51.978;5.934;2022-12-07T09:03:53;101613.25;;;9.35;90.72
75359;BME280;64046;51.978;5.934;2022-12-07T09:06:25;101614.50;;;9.55;90.35
75359;BME280;64046;51.978;5.934;2022-12-07T09:08:57;101618.53;;;9.66;90.24
75359;BME280;64046;51.978;5.934;2022-12-07T09:11:27;101617.78;;;9.61;90.14
75359;BME280;64046;51.978;5.934;2022-12-07T09:13:56;101614.88;;;9.72;89.80
75359;BME280;64046;51.978;5.934;2022-12-07T09:16:26;101611.06;;;9.84;89.18
75359;BME280;64046;51.978;5.934;2022-12-07T09:18:55;101608.44;;;9.84;89.32
75359;BME280;64046;51.978;5.934;2022-12-07T09:21:27;101614.13;;;9.98;89.57
75359;BME280;64046;51.978;5.934;2022-12-07T09:23:56;101615.16;;;9.93;88.99
75359;BME280;64046;51.978;5.934;2022-12-07T09:26:25;101621.38;;;9.90;89.20
75359;BME280;64046;51.978;5.934;2022-12-07T09:28:55;101623.81;;;9.96;89.17
75359;BME280;64046;51.978;5.934;2022-12-07T09:31:24;101626.28;;;10.01;88.98
75359;BME280;64046;51.978;5.934;2022-12-07T09:33:54;101615.66;;;10.05;89.11
75359;BME280;64046;51.978;5.934;2022-12-07T09:36:24;101615.66;;;10.05;89.12
75359;BME280;64046;51.978;5.934;2022-12-07T09:38:56;101620.25;;;10.27;88.67
75359;BME280;64046;51.978;5.934;2022-12-07T09:41:26;101618.44;;;10.31;88.52
75359;BME280;64046;51.978;5.934;2022-12-07T09:44:02;101606.75;;;10.43;87.95
75359;BME280;64046;51.978;5.934;2022-12-07T09:46:35;101610.97;;;10.47;87.81
75359;BME280;64046;51.978;5.934;2022-12-07T09:49:05;101619.22;;;10.33;87.96
75359;BME280;64046;51.978;5.934;2022-12-07T09:51:38;101612.34;;;10.30;88.15
75359;BME280;64046;51.978;5.934;2022-12-07T09:54:12;101598.56;;;10.53;87.38
75359;BME280;64046;51.978;5.934;2022-12-07T09:56:42;101602.22;;;10.48;87.45
75359;BME280;64046;51.978;5.934;2022-12-07T09:59:15;101604.97;;;10.71;86.72
75359;BME280;64046;51.978;5.934;2022-12-07T10:01:48;101598.75;;;10.74;86.58
75359;BME280;64046;51.978;5.934;2022-12-07T10:04:20;101601.66;;;10.66;86.80
75359;BME280;64046;51.978;5.934;2022-12-07T10:06:50;101595.31;;;10.45;87.15
75359;BME280;64046;51.978;5.934;2022-12-07T10:09:22;101597.59;;;10.56;86.86
75359;BME280;64046;51.978;5.934;2022-12-07T10:12:11;101597.47;;;10.61;85.89
75359;BME280;64046;51.978;5.934;2022-12-07T10:14:53;101600.28;;;10.53;86.47
75359;BME280;64046;51.978;5.934;2022-12-07T10:17:31;101592.75;;;10.44;86.71
75359;BME280;64046;51.978;5.934;2022-12-07T10:20:17;101599.72;;;10.45;86.67
75359;BME280;64046;51.978;5.934;2022-12-07T10:22:58;101589.19;;;10.46;86.44
75359;BME280;64046;51.978;5.934;2022-12-07T10:25:32;101586.88;;;10.35;87.22
75359;BME280;64046;51.978;5.934;2022-12-07T10:28:11;101579.94;;;10.33;87.00
75359;BME280;64046;51.978;5.934;2022-12-07T10:30:55;101581.47;;;10.40;86.71
75359;BME280;64046;51.978;5.934;2022-12-07T10:33:30;101576.81;;;10.21;87.90
75359;BME280;64046;51.978;5.934;2022-12-07T10:36:01;101572.41;;;10.22;87.62
75359;BME280;64046;51.978;5.934;2022-12-07T10:38:45;101575.56;;;10.33;87.20
75359;BME280;64046;51.978;5.934;2022-12-07T10:41:17;101565.97;;;10.32;87.46
75359;BME280;64046;51.978;5.934;2022-12-07T10:43:47;101571.38;;;10.28;87.55
75359;BME280;64046;51.978;5.934;2022-12-07T10:46:34;101573.31;;;10.51;86.63
75359;BME280;64046;51.978;5.934;2022-12-07T10:49:22;101566.09;;;10.58;86.29
75359;BME280;64046;51.978;5.934;2022-12-07T10:52:03;101569.47;;;10.61;86.65
75359;BME280;64046;51.978;5.934;2022-12-07T10:54:44;101564.75;;;10.72;86.27
75359;BME280;64046;51.978;5.934;2022-12-07T10:57:30;101564.47;;;10.80;86.00
75359;BME280;64046;51.978;5.934;2022-12-07T11:00:18;101553.84;;;10.85;85.54
75359;BME280;64046;51.978;5.934;2022-12-07T11:05:47;101553.09;;;10.81;85.98
75359;BME280;64046;51.978;5.934;2022-12-07T11:08:33;101545.22;;;10.81;85.89
75359;BME280;64046;51.978;5.934;2022-12-07T11:11:13;101546.09;;;10.82;85.62
75359;BME280;64046;51.978;5.934;2022-12-07T11:13:52;101552.25;;;10.81;85.13
75359;BME280;64046;51.978;5.934;2022-12-07T11:16:32;101547.09;;;10.78;85.17
75359;BME280;64046;51.978;5.934;2022-12-07T11:22:00;101542.03;;;10.71;84.88
75359;BME280;64046;51.978;5.934;2022-12-07T11:24:37;101542.09;;;10.70;84.88
75359;BME280;64046;51.978;5.934;2022-12-07T11:27:19;101536.72;;;10.75;84.42
75359;BME280;64046;51.978;5.934;2022-12-07T11:30:03;101531.56;;;10.71;84.17
75359;BME280;64046;51.978;5.934;2022-12-07T11:32:47;101529.06;;;10.68;84.37
75359;BME280;64046;51.978;5.934;2022-12-07T11:35:27;101520.34;;;10.68;84.41
75359;BME280;64046;51.978;5.934;2022-12-07T11:38:03;101523.81;;;10.68;84.64
75359;BME280;64046;51.978;5.934;2022-12-07T11:40:36;101527.53;;;10.61;84.55
75359;BME280;64046;51.978;5.934;2022-12-07T11:43:15;101523.34;;;10.82;83.89
75359;BME280;64046;51.978;5.934;2022-12-07T11:45:54;101522.22;;;10.89;84.11
75359;BME280;64046;51.978;5.934;2022-12-07T11:48:33;101517.66;;;10.96;83.87
75359;BME280;64046;51.978;5.934;2022-12-07T11:51:03;101513.41;;;10.92;83.93
75359;BME280;64046;51.978;5.934;2022-12-07T11:53:38;101507.28;;;11.17;83.34
75359;BME280;64046;51.978;5.934;2022-12-07T11:56:10;101518.75;;;11.14;83.01
75359;BME280;64046;51.978;5.934;2022-12-07T11:58:54;101501.81;;;11.23;82.63
75359;BME280;64046;51.978;5.934;2022-12-07T12:01:38;101500.81;;;11.27;82.71
75359;BME280;64046;51.978;5.934;2022-12-07T12:04:23;101492.09;;;11.27;83.02
75359;BME280;64046;51.978;5.934;2022-12-07T12:06:56;101503.97;;;11.12;83.29
75359;BME280;64046;51.978;5.934;2022-12-07T12:09:29;101493.94;;;11.23;83.23
75359;BME280;64046;51.978;5.934;2022-12-07T12:12:16;101484.78;;;11.35;82.41
75359;BME280;64046;51.978;5.934;2022-12-07T12:15:01;101485.06;;;11.27;82.65
75359;BME280;64046;51.978;5.934;2022-12-07T12:17:46;101476.59;;;11.19;82.87
75359;BME280;64046;51.978;5.934;2022-12-07T12:20:23;101487.38;;;11.11;83.39
75359;BME280;64046;51.978;5.934;2022-12-07T12:22:59;101481.41;;;11.07;83.07
75359;BME280;64046;51.978;5.934;2022-12-07T12:25:35;101477.13;;;11.05;83.11
75359;BME280;64046;51.978;5.934;2022-12-07T12:28:20;101474.50;;;11.29;82.15
75359;BME280;64046;51.978;5.934;2022-12-07T12:31:07;101476.63;;;11.42;81.33
75359;BME280;64046;51.978;5.934;2022-12-07T12:33:43;101477.81;;;11.34;82.15
75359;BME280;64046;51.978;5.934;2022-12-07T12:36:25;101469.84;;;11.37;81.56
75359;BME280;64046;51.978;5.934;2022-12-07T12:39:13;101479.13;;;11.46;81.04
75359;BME280;64046;51.978;5.934;2022-12-07T12:42:01;101479.81;;;11.51;80.85
75359;BME280;64046;51.978;5.934;2022-12-07T12:44:40;101466.81;;;11.48;81.42
75359;BME280;64046;51.978;5.934;2022-12-07T12:50:32;101464.28;;;11.68;80.61
75359;BME280;64046;51.978;5.934;2022-12-07T12:53:14;101465.88;;;11.72;80.64
75359;BME280;64046;51.978;5.934;2022-12-07T12:58:45;101452.72;;;11.50;82.04
75359;BME280;64046;51.978;5.934;2022-12-07T13:01:39;101447.00;;;11.63;81.47
75359;BME280;64046;51.978;5.934;2022-12-07T13:10:33;101430.94;;;11.48;81.86
75359;BME280;64046;51.978;5.934;2022-12-07T13:13:08;101435.44;;;11.45;82.06
75359;BME280;64046;51.978;5.934;2022-12-07T13:15:55;101426.78;;;11.42;81.46
75359;BME280;64046;51.978;5.934;2022-12-07T13:18:46;101430.28;;;11.41;81.45
75359;BME280;64046;51.978;5.934;2022-12-07T13:21:43;101424.72;;;11.51;80.58
75359;BME280;64046;51.978;5.934;2022-12-07T13:24:12;101424.44;;;11.35;81.55
75359;BME280;64046;51.978;5.934;2022-12-07T13:26:43;101418.31;;;11.34;81.24
75359;BME280;64046;51.978;5.934;2022-12-07T13:29:15;101419.03;;;11.39;81.71
75359;BME280;64046;51.978;5.934;2022-12-07T13:31:47;101415.38;;;11.43;81.80
75359;BME280;64046;51.978;5.934;2022-12-07T13:34:31;101413.72;;;11.63;80.26
75359;BME280;64046;51.978;5.934;2022-12-07T13:37:04;101410.78;;;11.49;81.67
75359;BME280;64046;51.978;5.934;2022-12-07T13:39:45;101395.59;;;11.57;81.33
75359;BME280;64046;51.978;5.934;2022-12-07T13:42:22;101396.38;;;11.59;81.42
75359;BME280;64046;51.978;5.934;2022-12-07T13:44:54;101391.44;;;11.51;81.42
75359;BME280;64046;51.978;5.934;2022-12-07T13:47:30;101385.94;;;11.57;80.72
75359;BME280;64046;51.978;5.934;2022-12-07T13:50:22;101383.88;;;11.66;80.15